Terminal Aerodrome Forecast
Issued by NWS Sterling, VA

Current Version | Previous Version | Graphics & Text | Print | Product List | Glossary On
Versions: 1 2 3 4 5 6 7 8 9 10 11 12 13 14 15 16 17
538
FTUS41 KLWX 110520
TAFMRB
TAF
KMRB 110520Z 1106/1206 VRB03KT P6SM BKN070
     FM111000 25004KT P6SM SCT130
     FM112000 19004KT P6SM BKN120=

USA.gov is the U.S. government's official web portal to all federal, state and local government web resources and services.